createdAt,value
2023-05-08T00:02:05.379Z,18.04
2023-05-08T00:04:38.196Z,18.03
2023-05-08T00:07:11.101Z,18.03
2023-05-08T00:09:44.065Z,18.02
2023-05-08T00:12:16.849Z,18.03
2023-05-08T00:14:51.312Z,18.03
2023-05-08T00:17:24.011Z,18.04
2023-05-08T00:19:56.980Z,18.03
2023-05-08T00:22:29.760Z,18.05
2023-05-08T00:25:03.455Z,18.04
2023-05-08T00:27:36.163Z,18.04
2023-05-08T00:30:11.959Z,18.05
2023-05-08T00:32:44.994Z,18.05
2023-05-08T00:35:17.745Z,18.05
2023-05-08T00:37:50.861Z,18.05
2023-05-08T00:40:23.658Z,18.06
2023-05-08T00:42:56.285Z,18.05
2023-05-08T00:45:33.851Z,18.04
2023-05-08T00:48:06.913Z,18.04
2023-05-08T00:50:39.677Z,18.04
2023-05-08T00:53:13.319Z,18.05
2023-05-08T00:55:46.673Z,18.02
2023-05-08T00:58:19.827Z,18.01
2023-05-08T01:00:55.571Z,18.01
2023-05-08T01:03:29.319Z,17.99
2023-05-08T01:06:02.941Z,17.97
2023-05-08T01:08:35.978Z,17.97
2023-05-08T01:11:12.930Z,17.94
2023-05-08T01:13:52.560Z,17.93
2023-05-08T01:16:30.637Z,17.89
2023-05-08T01:19:08.544Z,17.87
2023-05-08T01:21:44.334Z,17.85
2023-05-08T01:24:37.678Z,17.82
2023-05-08T01:27:29.714Z,17.81
2023-05-08T01:30:32.440Z,17.80
2023-05-08T01:33:09.404Z,17.77
2023-05-08T01:35:44.417Z,17.75
2023-05-08T01:38:20.843Z,17.75
2023-05-08T01:40:55.691Z,17.75
2023-05-08T01:43:32.388Z,17.75
2023-05-08T01:46:07.750Z,17.75
2023-05-08T01:48:45.722Z,17.73
2023-05-08T01:51:19.853Z,17.73
2023-05-08T01:53:57.059Z,17.73
2023-05-08T01:56:30.829Z,17.71
2023-05-08T01:59:03.777Z,17.71
2023-05-08T02:01:36.989Z,17.70
2023-05-08T02:04:11.926Z,17.71
2023-05-08T02:06:45.050Z,17.69
2023-05-08T02:09:17.796Z,17.70
2023-05-08T02:11:50.937Z,17.69
2023-05-08T02:14:23.858Z,17.69
2023-05-08T02:16:57.095Z,17.70
2023-05-08T02:19:32.410Z,17.70
2023-05-08T02:22:05.242Z,17.70
2023-05-08T02:24:38.986Z,17.71
2023-05-08T02:27:12.499Z,17.73
2023-05-08T02:29:45.763Z,17.75
2023-05-08T02:32:19.364Z,17.75
2023-05-08T02:35:02.374Z,17.76
2023-05-08T02:37:36.171Z,17.77
2023-05-08T02:40:11.395Z,17.79
2023-05-08T02:42:44.532Z,17.78
2023-05-08T02:45:17.439Z,17.81
2023-05-08T02:47:54.248Z,17.80
2023-05-08T02:50:35.206Z,17.82
2023-05-08T02:53:10.766Z,17.82
2023-05-08T02:55:47.991Z,17.82
2023-05-08T02:58:23.462Z,17.83
2023-05-08T03:00:57.952Z,17.83
2023-05-08T03:03:34.183Z,17.83
2023-05-08T03:06:11.354Z,17.80
2023-05-08T03:08:44.360Z,17.80
2023-05-08T03:11:19.280Z,17.80
2023-05-08T03:13:52.967Z,17.80
2023-05-08T03:16:26.568Z,17.79
2023-05-08T03:19:01.120Z,17.78
2023-05-08T03:21:37.490Z,17.78
2023-05-08T03:24:11.089Z,17.77
2023-05-08T03:26:44.141Z,17.75
2023-05-08T03:29:17.946Z,17.74
2023-05-08T03:31:52.397Z,17.72
2023-05-08T03:34:25.657Z,17.73
2023-05-08T03:37:00.068Z,17.72
2023-05-08T03:39:33.072Z,17.72
2023-05-08T03:42:06.130Z,17.70
2023-05-08T03:44:39.076Z,17.69
2023-05-08T03:47:12.048Z,17.69
2023-05-08T03:49:46.562Z,17.68
2023-05-08T03:52:21.158Z,17.68
2023-05-08T03:54:53.892Z,17.69
2023-05-08T03:57:29.525Z,17.68
2023-05-08T04:00:04.853Z,17.68
2023-05-08T04:02:42.133Z,17.70
2023-05-08T04:05:19.980Z,17.70
2023-05-08T04:07:55.011Z,17.69
2023-05-08T04:10:30.896Z,17.70
2023-05-08T04:13:06.985Z,17.69
2023-05-08T04:15:40.880Z,17.70
2023-05-08T04:18:15.987Z,17.69
2023-05-08T04:20:49.275Z,17.70
2023-05-08T04:23:24.334Z,17.71
2023-05-08T04:25:58.012Z,17.71
2023-05-08T04:28:31.458Z,17.73
2023-05-08T04:31:05.029Z,17.74
2023-05-08T04:33:38.001Z,17.76
2023-05-08T04:36:12.617Z,17.76
2023-05-08T04:38:46.762Z,17.75
2023-05-08T04:41:19.809Z,17.77
2023-05-08T04:43:52.508Z,17.76
2023-05-08T04:46:25.763Z,17.77
2023-05-08T04:48:58.568Z,17.79
2023-05-08T04:51:32.009Z,17.78
2023-05-08T04:54:06.369Z,17.77
2023-05-08T04:56:39.047Z,17.77
2023-05-08T04:59:12.500Z,17.78
2023-05-08T05:01:46.939Z,17.77
2023-05-08T05:04:19.810Z,17.77
2023-05-08T05:06:52.421Z,17.77
2023-05-08T05:09:26.457Z,17.78
2023-05-08T05:11:59.238Z,17.79
2023-05-08T05:14:32.045Z,17.81
2023-05-08T05:17:04.808Z,17.82
2023-05-08T05:19:37.697Z,17.85
2023-05-08T05:22:10.422Z,17.86
2023-05-08T05:24:44.882Z,17.87
2023-05-08T05:27:19.924Z,17.90
2023-05-08T05:29:53.839Z,17.92
2023-05-08T05:32:26.733Z,17.97
2023-05-08T05:34:59.446Z,18.00
2023-05-08T05:37:32.178Z,18.03
2023-05-08T05:40:07.762Z,18.07
2023-05-08T05:42:40.583Z,18.09
2023-05-08T05:45:13.547Z,18.13
2023-05-08T05:47:50.054Z,18.17
2023-05-08T05:50:23.559Z,18.21
2023-05-08T05:52:56.241Z,18.24
2023-05-08T05:55:30.470Z,18.26
2023-05-08T05:58:03.257Z,18.31
2023-05-08T06:00:36.002Z,18.34
2023-05-08T06:03:09.200Z,18.40
2023-05-08T06:05:42.076Z,18.43
2023-05-08T06:08:16.543Z,18.48
2023-05-08T06:10:51.833Z,18.53
2023-05-08T06:13:24.646Z,18.56
2023-05-08T06:15:57.674Z,18.62
2023-05-08T06:18:30.442Z,18.67
2023-05-08T06:21:03.202Z,18.74
2023-05-08T06:23:36.698Z,18.78
2023-05-08T06:26:10.860Z,18.83
2023-05-08T06:28:43.542Z,18.89
2023-05-08T06:31:16.355Z,18.92
2023-05-08T06:33:49.024Z,18.98
2023-05-08T06:36:22.033Z,18.99
2023-05-08T06:38:54.879Z,19.04
2023-05-08T06:41:29.135Z,19.05
2023-05-08T06:44:01.881Z,19.10
2023-05-08T06:46:34.560Z,19.10
2023-05-08T06:49:07.281Z,19.13
2023-05-08T06:51:39.884Z,19.16
2023-05-08T06:54:12.918Z,19.18
2023-05-08T06:56:47.172Z,19.20
2023-05-08T06:59:19.961Z,19.23
2023-05-08T07:01:52.722Z,19.26
2023-05-08T07:04:25.660Z,19.27
2023-05-08T07:06:58.554Z,19.30
2023-05-08T07:09:31.314Z,19.32
2023-05-08T07:12:05.794Z,19.36
2023-05-08T07:14:38.525Z,19.38
2023-05-08T07:17:11.150Z,19.41
2023-05-08T07:19:43.873Z,19.44
2023-05-08T07:22:16.605Z,19.48
2023-05-08T07:24:49.423Z,19.52
2023-05-08T07:27:23.491Z,19.55
2023-05-08T07:29:57.520Z,19.58
2023-05-08T07:32:31.153Z,19.63
2023-05-08T07:35:07.196Z,19.66
2023-05-08T07:37:41.562Z,19.70
2023-05-08T07:40:14.307Z,19.74
2023-05-08T07:42:48.366Z,19.77
2023-05-08T07:45:21.201Z,19.81
2023-05-08T07:47:54.624Z,19.82
2023-05-08T07:50:27.386Z,19.86
2023-05-08T07:53:00.476Z,19.88
2023-05-08T07:55:33.255Z,19.90
2023-05-08T07:58:08.285Z,19.92
2023-05-08T08:00:41.402Z,19.93
2023-05-08T08:03:14.318Z,19.94
2023-05-08T08:05:47.111Z,19.94
2023-05-08T08:08:20.178Z,19.96
2023-05-08T08:10:52.913Z,19.98
2023-05-08T08:13:27.185Z,19.99
2023-05-08T08:16:00.239Z,20.02
2023-05-08T08:18:35.770Z,20.04
2023-05-08T08:21:08.727Z,20.11
2023-05-08T08:23:41.408Z,20.15
2023-05-08T08:26:14.156Z,20.23
2023-05-08T08:28:48.235Z,20.33
2023-05-08T08:31:21.156Z,20.47
2023-05-08T08:33:54.001Z,20.61
2023-05-08T08:36:26.709Z,20.80
2023-05-08T08:39:00.114Z,20.98
2023-05-08T08:41:33.678Z,21.16
2023-05-08T08:44:08.327Z,21.32
2023-05-08T08:46:45.321Z,21.49
2023-05-08T08:49:19.465Z,21.65
2023-05-08T08:51:53.817Z,21.82
2023-05-08T08:54:29.273Z,21.98
2023-05-08T08:57:02.495Z,22.14
2023-05-08T08:59:39.218Z,22.30
2023-05-08T09:02:15.110Z,22.45
2023-05-08T09:04:50.628Z,22.63
2023-05-08T09:07:24.270Z,22.78
2023-05-08T09:09:57.075Z,22.93
2023-05-08T09:12:29.800Z,23.07
2023-05-08T09:15:03.859Z,23.20
2023-05-08T09:17:36.571Z,23.33
2023-05-08T09:20:10.155Z,23.46
2023-05-08T09:22:43.802Z,23.61
2023-05-08T09:25:16.621Z,23.76
2023-05-08T09:27:49.506Z,23.93
2023-05-08T09:30:23.779Z,24.11
2023-05-08T09:33:03.226Z,24.32
2023-05-08T09:35:36.950Z,24.51
2023-05-08T09:38:09.593Z,24.68
2023-05-08T09:40:42.294Z,24.83
2023-05-08T09:43:15.071Z,24.93
2023-05-08T09:45:49.174Z,25.01
2023-05-08T09:48:37.762Z,25.08
2023-05-08T09:51:11.065Z,25.16
2023-05-08T09:53:44.120Z,25.28
2023-05-08T09:56:16.837Z,25.40
2023-05-08T09:58:49.567Z,25.56
2023-05-08T10:01:30.766Z,25.72
2023-05-08T10:04:06.018Z,25.86
2023-05-08T10:06:39.027Z,25.98
2023-05-08T10:09:12.403Z,26.04
2023-05-08T10:11:52.021Z,26.09
2023-05-08T10:14:24.906Z,26.08
2023-05-08T10:17:01.025Z,26.05
2023-05-08T10:19:34.250Z,26.00
2023-05-08T10:22:08.872Z,25.91
2023-05-08T10:24:42.342Z,25.83
2023-05-08T10:27:18.750Z,25.76
2023-05-08T10:29:53.839Z,25.69
2023-05-08T10:32:29.796Z,25.65
2023-05-08T10:35:04.567Z,25.65
2023-05-08T10:37:37.969Z,25.69
2023-05-08T10:40:11.613Z,25.73
2023-05-08T10:42:45.074Z,25.83
2023-05-08T10:45:17.967Z,25.92
2023-05-08T10:47:58.688Z,26.02
2023-05-08T10:50:45.622Z,26.09
2023-05-08T10:53:20.184Z,26.17
2023-05-08T10:55:53.271Z,26.23
2023-05-08T10:58:33.228Z,26.30
2023-05-08T11:01:13.488Z,26.37
2023-05-08T11:03:51.108Z,26.48
2023-05-08T11:06:54.000Z,26.58
2023-05-08T11:09:29.084Z,26.73
2023-05-08T11:12:08.391Z,26.86
2023-05-08T11:14:43.695Z,26.96
2023-05-08T11:17:24.178Z,27.09
2023-05-08T11:19:59.527Z,27.19
2023-05-08T11:22:32.989Z,27.30
2023-05-08T11:25:07.336Z,27.40
2023-05-08T11:27:41.295Z,27.50
2023-05-08T11:30:23.983Z,27.58
2023-05-08T11:32:57.169Z,27.61
2023-05-08T11:35:44.951Z,27.64
2023-05-08T11:38:18.414Z,27.64
2023-05-08T11:41:01.126Z,27.64
2023-05-08T11:43:52.137Z,27.62
2023-05-08T11:46:38.990Z,27.59
2023-05-08T11:49:15.547Z,27.59
2023-05-08T11:51:50.552Z,27.58
2023-05-08T11:54:24.965Z,27.57
2023-05-08T11:56:59.601Z,27.57
2023-05-08T11:59:36.105Z,27.58
2023-05-08T12:02:09.778Z,27.58
2023-05-08T12:04:47.135Z,27.59
2023-05-08T12:07:23.385Z,27.63
2023-05-08T12:09:56.592Z,27.69
2023-05-08T12:12:38.968Z,27.75
2023-05-08T12:15:15.699Z,27.80
2023-05-08T12:17:48.592Z,27.86
2023-05-08T12:20:23.579Z,27.90
2023-05-08T12:22:59.181Z,27.91
2023-05-08T12:25:31.996Z,27.90
2023-05-08T12:28:08.395Z,27.85
2023-05-08T12:30:41.117Z,27.77
2023-05-08T12:33:17.297Z,27.68
2023-05-08T12:35:50.537Z,27.58
2023-05-08T12:38:27.726Z,27.47
2023-05-08T12:41:04.494Z,27.35
2023-05-08T12:43:37.655Z,27.21
2023-05-08T12:46:12.759Z,27.09
2023-05-08T12:48:47.880Z,26.96
2023-05-08T12:51:20.701Z,26.83
2023-05-08T12:53:54.699Z,26.73
2023-05-08T12:56:27.585Z,26.64
2023-05-08T12:59:00.710Z,26.56
2023-05-08T13:01:33.611Z,26.50
2023-05-08T13:04:08.267Z,26.46
2023-05-08T13:06:41.133Z,26.42
2023-05-08T13:09:20.337Z,26.38
2023-05-08T13:11:53.171Z,26.34
2023-05-08T13:14:25.942Z,26.28
2023-05-08T13:16:59.865Z,26.22
2023-05-08T13:19:32.722Z,26.08
2023-05-08T13:22:05.561Z,25.90
2023-05-08T13:24:39.661Z,25.66
2023-05-08T13:27:13.631Z,25.36
2023-05-08T13:29:46.254Z,25.03
2023-05-08T13:32:19.066Z,24.70
2023-05-08T13:34:54.109Z,24.40
2023-05-08T13:37:31.312Z,24.13
2023-05-08T13:40:06.312Z,23.88
2023-05-08T13:42:39.088Z,23.66
2023-05-08T13:45:14.493Z,23.41
2023-05-08T13:47:47.812Z,23.18
2023-05-08T13:50:21.844Z,22.94
2023-05-08T13:52:55.098Z,22.66
2023-05-08T13:55:29.462Z,22.37
2023-05-08T13:58:02.851Z,22.01
2023-05-08T14:00:36.388Z,21.63
2023-05-08T14:03:09.514Z,21.23
2023-05-08T14:05:42.302Z,20.81
2023-05-08T14:08:15.356Z,20.43
2023-05-08T14:10:51.280Z,20.06
2023-05-08T14:13:24.367Z,19.73
2023-05-08T14:15:57.641Z,19.41
2023-05-08T14:18:30.452Z,19.13
2023-05-08T14:21:04.677Z,18.89
2023-05-08T14:23:39.972Z,18.66
2023-05-08T14:26:16.560Z,18.46
2023-05-08T14:28:49.682Z,18.31
2023-05-08T14:31:22.717Z,18.20
2023-05-08T14:33:55.878Z,18.13
2023-05-08T14:36:28.811Z,18.09
2023-05-08T14:39:05.413Z,18.04
2023-05-08T14:41:40.611Z,18.04
2023-05-08T14:44:13.793Z,18.06
2023-05-08T14:46:46.814Z,18.10
2023-05-08T14:49:32.737Z,18.15
2023-05-08T14:52:11.169Z,18.23
2023-05-08T14:54:44.375Z,18.30
2023-05-08T14:57:18.718Z,18.38
2023-05-08T14:59:55.320Z,18.46
2023-05-08T15:02:46.181Z,18.57
2023-05-08T15:05:20.494Z,18.67
2023-05-08T15:07:55.672Z,18.76
2023-05-08T15:10:33.578Z,18.88
2023-05-08T15:13:09.410Z,18.98
2023-05-08T15:15:42.500Z,19.10
2023-05-08T15:18:15.926Z,19.21
2023-05-08T15:20:48.992Z,19.31
2023-05-08T15:23:22.794Z,19.42
2023-05-08T15:25:56.696Z,19.51
2023-05-08T15:28:33.306Z,19.62
2023-05-08T15:31:07.234Z,19.70
2023-05-08T15:33:45.759Z,19.79
2023-05-08T15:36:18.619Z,19.87
2023-05-08T15:38:52.026Z,19.97
2023-05-08T15:41:24.849Z,20.05
2023-05-08T15:44:00.510Z,20.14
2023-05-08T15:46:39.446Z,20.21
2023-05-08T15:49:12.839Z,20.26
2023-05-08T15:51:49.395Z,20.30
2023-05-08T15:54:22.910Z,20.33
2023-05-08T15:56:56.632Z,20.34
2023-05-08T15:59:33.469Z,20.35
2023-05-08T16:04:53.642Z,20.36
2023-05-08T16:07:26.540Z,20.37
2023-05-08T16:09:59.410Z,20.40
2023-05-08T16:12:32.388Z,20.42
2023-05-08T16:15:07.383Z,20.43
2023-05-08T16:17:40.439Z,20.42
2023-05-08T16:20:13.650Z,20.43
2023-05-08T16:22:47.142Z,20.42
2023-05-08T16:25:20.039Z,20.41
2023-05-08T16:27:53.194Z,20.39
2023-05-08T16:30:27.996Z,20.36
2023-05-08T16:33:00.851Z,20.32
2023-05-08T16:35:34.556Z,20.29
2023-05-08T16:38:07.596Z,20.30
2023-05-08T16:40:42.301Z,20.29
2023-05-08T16:43:15.448Z,20.29
2023-05-08T16:45:52.480Z,20.29
2023-05-08T16:48:25.667Z,20.31
2023-05-08T16:50:58.462Z,20.31
2023-05-08T16:53:32.981Z,20.34
2023-05-08T16:56:05.856Z,20.36
2023-05-08T16:58:39.089Z,20.37
2023-05-08T17:01:14.230Z,20.38
2023-05-08T17:03:47.220Z,20.34
2023-05-08T17:06:20.727Z,20.31
2023-05-08T17:08:53.814Z,20.29
2023-05-08T17:11:26.540Z,20.25
2023-05-08T17:13:59.587Z,20.22
2023-05-08T17:16:34.252Z,20.18
2023-05-08T17:19:07.107Z,20.15
2023-05-08T17:21:40.023Z,20.13
2023-05-08T17:24:13.076Z,20.11
2023-05-08T17:26:45.793Z,20.09
2023-05-08T17:29:18.716Z,20.08
2023-05-08T17:31:53.058Z,20.07
2023-05-08T17:34:26.490Z,20.07
2023-05-08T17:36:59.493Z,20.05
2023-05-08T17:39:32.231Z,20.04
2023-05-08T17:42:05.107Z,20.05
2023-05-08T17:44:37.896Z,20.03
2023-05-08T17:47:12.048Z,20.02
2023-05-08T17:49:44.735Z,20.01
2023-05-08T17:52:17.850Z,20.00
2023-05-08T17:54:51.758Z,19.99
2023-05-08T17:57:24.987Z,19.96
2023-05-08T17:59:58.191Z,19.94
2023-05-08T18:02:32.963Z,19.92
2023-05-08T18:05:06.085Z,19.90
2023-05-08T18:07:38.836Z,19.87
2023-05-08T18:10:12.222Z,19.85
2023-05-08T18:12:45.260Z,19.82
2023-05-08T18:15:18.028Z,19.78
2023-05-08T18:17:54.125Z,19.75
2023-05-08T18:20:27.032Z,19.71
2023-05-08T18:23:00.143Z,19.68
2023-05-08T18:25:33.325Z,19.63
2023-05-08T18:28:06.449Z,19.59
2023-05-08T18:30:40.316Z,19.55
2023-05-08T18:33:14.460Z,19.52
2023-05-08T18:35:52.340Z,19.46
2023-05-08T18:38:25.058Z,19.42
2023-05-08T18:40:58.177Z,19.37
2023-05-08T18:43:31.498Z,19.35
2023-05-08T18:46:09.144Z,19.30
2023-05-08T18:48:43.338Z,19.26
2023-05-08T18:51:16.198Z,19.23
2023-05-08T18:53:48.854Z,19.19
2023-05-08T18:56:22.288Z,19.16
2023-05-08T18:58:55.033Z,19.12
2023-05-08T19:01:27.882Z,19.11
2023-05-08T19:04:02.851Z,19.06
2023-05-08T19:06:35.801Z,19.04
2023-05-08T19:09:09.062Z,19.01
2023-05-08T19:11:42.089Z,19.00
2023-05-08T19:14:14.928Z,18.95
2023-05-08T19:16:47.923Z,18.93
2023-05-08T19:19:22.092Z,18.92
2023-05-08T19:21:56.684Z,18.89
2023-05-08T19:24:30.986Z,18.89
2023-05-08T19:27:04.364Z,18.87
2023-05-08T19:29:37.598Z,18.85
2023-05-08T19:32:10.384Z,18.84
2023-05-08T19:34:44.719Z,18.83
2023-05-08T19:37:17.536Z,18.82
2023-05-08T19:39:50.497Z,18.80
2023-05-08T19:42:23.465Z,18.80
2023-05-08T19:44:56.406Z,18.79
2023-05-08T19:47:29.327Z,18.79
2023-05-08T19:50:04.001Z,18.78
2023-05-08T19:52:36.735Z,18.77
2023-05-08T19:55:09.982Z,18.75
2023-05-08T19:57:42.956Z,18.73
2023-05-08T20:00:16.104Z,18.73
2023-05-08T20:02:48.976Z,18.72
2023-05-08T20:05:23.567Z,18.69
2023-05-08T20:07:56.473Z,18.67
2023-05-08T20:10:29.266Z,18.64
2023-05-08T20:13:02.379Z,18.62
2023-05-08T20:15:35.243Z,18.61
2023-05-08T20:18:08.077Z,18.58
2023-05-08T20:20:42.403Z,18.55
2023-05-08T20:23:15.846Z,18.54
2023-05-08T20:25:48.602Z,18.52
2023-05-08T20:28:25.567Z,18.49
2023-05-08T20:30:58.654Z,18.46
2023-05-08T20:33:31.433Z,18.45
2023-05-08T20:36:05.721Z,18.45
2023-05-08T20:38:38.755Z,18.41
2023-05-08T20:41:11.903Z,18.41
2023-05-08T20:43:45.366Z,18.39
2023-05-08T20:46:18.656Z,18.37
2023-05-08T20:48:52.243Z,18.37
2023-05-08T20:51:26.917Z,18.35
2023-05-08T20:53:59.832Z,18.33
2023-05-08T20:56:32.841Z,18.31
2023-05-08T20:59:06.107Z,18.30
2023-05-08T21:01:39.574Z,18.27
2023-05-08T21:04:12.299Z,18.27
2023-05-08T21:06:46.427Z,18.24
2023-05-08T21:09:19.532Z,18.22
2023-05-08T21:11:52.435Z,18.20
2023-05-08T21:14:25.368Z,18.19
2023-05-08T21:16:58.209Z,18.18
2023-05-08T21:19:31.718Z,18.15
2023-05-08T21:22:08.017Z,18.13
2023-05-08T21:24:44.021Z,18.13
2023-05-08T21:27:17.096Z,18.10
2023-05-08T21:29:50.143Z,18.08
2023-05-08T21:32:22.858Z,18.07
2023-05-08T21:34:56.272Z,18.04
2023-05-08T21:37:31.786Z,18.03
2023-05-08T21:40:05.516Z,18.02
2023-05-08T21:42:38.164Z,18.02
2023-05-08T21:45:11.591Z,18.02
2023-05-08T21:47:44.392Z,18.01
2023-05-08T21:50:17.201Z,18.02
2023-05-08T21:52:52.096Z,18.01
2023-05-08T21:55:25.230Z,18.01
2023-05-08T21:57:57.979Z,17.98
2023-05-08T22:00:31.089Z,17.98
2023-05-08T22:03:03.894Z,17.96
2023-05-08T22:05:37.066Z,17.95
2023-05-08T22:08:11.327Z,17.93
2023-05-08T22:10:45.140Z,17.91
2023-05-08T22:13:17.964Z,17.92
2023-05-08T22:15:50.925Z,17.89
2023-05-08T22:18:23.635Z,17.87
2023-05-08T22:20:56.302Z,17.85
2023-05-08T22:23:30.827Z,17.83
2023-05-08T22:26:03.612Z,17.80
2023-05-08T22:28:36.299Z,17.79
2023-05-08T22:31:09.084Z,17.76
2023-05-08T22:33:41.850Z,17.73
2023-05-08T22:36:14.670Z,17.71
2023-05-08T22:38:48.936Z,17.68
2023-05-08T22:41:22.387Z,17.66
2023-05-08T22:43:55.241Z,17.64
2023-05-08T22:46:28.114Z,17.63
2023-05-08T22:49:01.301Z,17.62
2023-05-08T22:51:34.126Z,17.61
2023-05-08T22:54:08.542Z,17.60
2023-05-08T22:56:41.554Z,17.59
2023-05-08T22:59:14.189Z,17.60
2023-05-08T23:01:47.473Z,17.61
2023-05-08T23:04:20.503Z,17.60
2023-05-08T23:06:53.597Z,17.60
2023-05-08T23:09:28.176Z,17.61
2023-05-08T23:12:01.281Z,17.61
2023-05-08T23:14:34.196Z,17.60
2023-05-08T23:17:07.224Z,17.60
2023-05-08T23:19:39.943Z,17.55
2023-05-08T23:22:13.998Z,17.52
2023-05-08T23:24:48.508Z,17.51
2023-05-08T23:27:22.856Z,17.47
2023-05-08T23:29:55.699Z,17.45
2023-05-08T23:32:28.808Z,17.42
2023-05-08T23:35:01.715Z,17.38
2023-05-08T23:37:34.948Z,17.36
2023-05-08T23:40:11.326Z,17.34
2023-05-08T23:42:44.537Z,17.33
2023-05-08T23:45:17.535Z,17.30
2023-05-08T23:47:50.551Z,17.29
2023-05-08T23:50:23.895Z,17.26
2023-05-08T23:52:56.890Z,17.24
2023-05-08T23:55:31.702Z,17.18
2023-05-08T23:58:05.078Z,17.13
